Time;durP1;ratioP1;P1;durP2;ratioP2;P2;SDS_P1;SDS_P2;PMS_P1;PMS_P2;Temp;Humidity;BMP_temperature;BMP_pressure;BME280_temperature;BME280_humidity;BME280_pressure;Samples;Min_cycle;Max_cycle;Signal;HPM_P1;HPM_P2
2022/08/14 00:00:57;;;;;;;8.60;4.38;;;;;;;18.67;100.00;101063.03;5201864;28;20127;-73
2022/08/14 00:03:31;;;;;;;8.43;5.03;;;;;;;18.59;100.00;101058.69;5192444;28;20105;-73
2022/08/14 00:06:02;;;;;;;11.02;4.53;;;;;;;18.48;100.00;101051.22;5201002;28;20029;-73
2022/08/14 00:08:33;;;;;;;14.13;5.68;;;;;;;18.40;100.00;101054.13;5201542;28;20092;-74
2022/08/14 00:11:04;;;;;;;6.60;4.70;;;;;;;18.33;100.00;101043.31;5201555;28;20029;-74
2022/08/14 00:13:36;;;;;;;19.80;5.10;;;;;;;18.28;100.00;101043.09;5201999;28;20025;-73
2022/08/14 00:16:06;;;;;;;10.85;5.07;;;;;;;18.12;100.00;101041.66;5194566;28;20033;-73
2022/08/14 00:18:37;;;;;;;10.43;5.40;;;;;;;18.00;100.00;101036.03;5201129;28;20029;-76
2022/08/14 00:21:08;;;;;;;7.63;5.25;;;;;;;17.98;100.00;101031.88;5201572;28;20028;-73
2022/08/14 00:23:39;;;;;;;14.55;5.47;;;;;;;17.95;100.00;101035.81;5201163;28;20032;-73
2022/08/14 00:26:10;;;;;;;12.07;5.50;;;;;;;17.92;100.00;101029.97;5200582;28;20029;-74
2022/08/14 00:28:40;;;;;;;10.35;5.32;;;;;;;17.88;100.00;101035.00;5201273;28;20029;-74
2022/08/14 00:31:12;;;;;;;12.07;5.57;;;;;;;17.82;100.00;101028.53;5200506;28;20025;-75
2022/08/14 00:33:43;;;;;;;7.22;5.13;;;;;;;17.76;100.00;101034.78;5189132;28;20021;-73
2022/08/14 00:36:14;;;;;;;5.95;4.90;;;;;;;17.77;100.00;101025.63;5200107;28;20088;-73
2022/08/14 00:38:44;;;;;;;11.18;5.38;;;;;;;17.75;100.00;101024.97;5201186;28;20017;-73
2022/08/14 00:41:15;;;;;;;8.93;5.20;;;;;;;17.71;100.00;101015.56;5200992;28;20013;-74
2022/08/14 00:43:45;;;;;;;12.38;5.63;;;;;;;17.69;100.00;101025.78;5200051;28;20037;-75
2022/08/14 00:46:16;;;;;;;9.85;5.35;;;;;;;17.66;100.00;101014.50;5200703;28;20048;-74
2022/08/14 00:48:47;;;;;;;9.88;5.75;;;;;;;17.65;100.00;101021.81;5200021;28;20091;-74
2022/08/14 00:51:19;;;;;;;10.63;5.82;;;;;;;17.61;100.00;101020.56;5200958;28;20036;-73
2022/08/14 00:53:50;;;;;;;9.93;5.80;;;;;;;17.58;100.00;101004.72;5201261;28;20112;-74
2022/08/14 00:56:20;;;;;;;10.90;6.30;;;;;;;17.56;100.00;101004.91;5200579;28;20597;-74
2022/08/14 00:58:53;;;;;;;13.57;5.78;;;;;;;17.53;100.00;101008.06;5200997;28;20053;-74
2022/08/14 01:01:24;;;;;;;18.35;5.97;;;;;;;17.50;100.00;101005.75;5201244;28;20060;-74
2022/08/14 01:03:56;;;;;;;10.88;6.00;;;;;;;17.42;100.00;101005.97;5191885;28;20443;-74
2022/08/14 01:06:28;;;;;;;17.17;6.25;;;;;;;17.37;100.00;101003.03;5201325;28;20051;-74
2022/08/14 01:09:01;;;;;;;12.60;5.90;;;;;;;17.34;100.00;100998.84;5200267;28;20025;-73
2022/08/14 01:11:32;;;;;;;18.02;5.88;;;;;;;17.32;100.00;100991.97;5200930;28;20498;-73
2022/08/14 01:14:03;;;;;;;13.75;6.68;;;;;;;17.29;100.00;100995.94;5200031;28;20037;-74
2022/08/14 01:16:34;;;;;;;12.10;6.68;;;;;;;17.24;100.00;101001.13;5194428;28;20033;-74
2022/08/14 01:21:53;;;;;;;7.85;6.55;;;;;;;16.96;100.00;101006.69;5201023;28;20037;-74
2022/08/14 01:24:25;;;;;;;11.57;5.63;;;;;;;16.91;100.00;101000.22;5200404;28;20049;-73
2022/08/14 01:26:58;;;;;;;7.90;5.80;;;;;;;16.93;100.00;100998.16;5200708;28;20025;-73
2022/08/14 01:29:29;;;;;;;9.43;5.90;;;;;;;16.93;100.00;100990.03;5204255;28;20086;-73
2022/08/14 01:32:00;;;;;;;14.15;6.32;;;;;;;16.88;100.00;100993.34;5191984;28;20461;-74
2022/08/14 01:34:31;;;;;;;10.32;6.35;;;;;;;16.78;100.00;100999.16;5203675;28;20047;-74
2022/08/14 01:37:03;;;;;;;11.07;6.30;;;;;;;16.75;100.00;100991.41;5203580;28;20037;-73
2022/08/14 01:39:35;;;;;;;7.00;5.97;;;;;;;16.75;100.00;100991.41;5203375;28;20025;-73
2022/08/14 01:42:06;;;;;;;9.43;6.18;;;;;;;16.74;100.00;100984.34;5204763;28;20021;-73
2022/08/14 01:44:37;;;;;;;8.13;6.40;;;;;;;16.70;100.00;100985.75;5204128;28;20036;-73
2022/08/14 01:49:57;;;;;;;11.10;6.70;;;;;;;16.47;100.00;100987.97;5192184;28;20030;-73
2022/08/14 01:52:43;;;;;;;8.40;6.35;;;;;;;16.37;100.00;100984.78;5203618;28;20029;-72
2022/08/14 01:55:15;;;;;;;8.02;6.55;;;;;;;16.29;100.00;100985.78;5203733;28;20028;-73
2022/08/14 01:57:45;;;;;;;8.60;6.30;;;;;;;16.22;100.00;100977.63;5203453;28;20026;-73
2022/08/14 02:00:17;;;;;;;12.98;6.15;;;;;;;16.14;100.00;100971.53;5204047;28;20021;-72
2022/08/14 02:02:48;;;;;;;11.65;6.75;;;;;;;16.11;100.00;100980.88;5200161;28;20049;-74
2022/08/14 02:05:19;;;;;;;12.57;7.00;;;;;;;16.08;100.00;100977.75;5197141;28;20061;-73
2022/08/14 02:07:50;;;;;;;13.07;7.93;;;;;;;16.03;100.00;100959.41;5202791;28;20109;-73
2022/08/14 02:10:21;;;;;;;15.00;7.82;;;;;;;16.00;100.00;100966.03;5203534;28;20491;-73
2022/08/14 02:12:51;;;;;;;11.95;7.45;;;;;;;16.00;100.00;100959.78;5204061;28;20029;-73
2022/08/14 02:15:24;;;;;;;10.35;7.75;;;;;;;15.98;100.00;100964.59;5202966;28;20505;-73
2022/08/14 02:17:55;;;;;;;14.38;7.57;;;;;;;15.95;100.00;100962.25;5204648;28;20021;-72
2022/08/14 02:20:32;;;;;;;16.05;7.38;;;;;;;15.92;100.00;100959.97;5190034;28;20025;-73
2022/08/14 02:23:03;;;;;;;12.45;7.50;;;;;;;15.91;100.00;100960.97;5203646;28;20483;-73
2022/08/14 02:25:33;;;;;;;9.90;7.30;;;;;;;15.84;100.00;100952.00;5203061;28;20035;-74
2022/08/14 02:28:04;;;;;;;9.10;7.38;;;;;;;15.80;100.00;100948.84;5203877;28;20036;-75
2022/08/14 02:30:34;;;;;;;13.75;6.60;;;;;;;15.81;100.00;100950.50;5203538;28;20029;-73
2022/08/14 02:33:06;;;;;;;15.07;7.18;;;;;;;15.83;100.00;100945.75;5203564;28;20061;-73
2022/08/14 02:35:40;;;;;;;10.48;7.40;;;;;;;15.82;100.00;100951.38;5203218;28;20099;-73
2022/08/14 02:38:10;;;;;;;13.23;7.72;;;;;;;15.80;100.00;100940.72;5203458;28;20032;-74
2022/08/14 02:40:41;;;;;;;14.07;7.40;;;;;;;15.76;100.00;100948.44;5203388;28;20017;-73
2022/08/14 02:43:12;;;;;;;10.23;7.18;;;;;;;15.73;100.00;100951.50;5202941;28;20059;-74
2022/08/14 02:45:43;;;;;;;14.02;7.28;;;;;;;15.66;100.00;100952.50;5203642;28;20029;-73
2022/08/14 02:48:14;;;;;;;17.42;7.57;;;;;;;15.52;100.00;100956.94;5201403;28;20132;-74
2022/08/14 02:50:45;;;;;;;17.00;7.75;;;;;;;15.45;100.00;100958.75;5203038;28;20064;-72
2022/08/14 02:53:15;;;;;;;13.13;7.72;;;;;;;15.40;100.00;100958.50;5202873;28;20540;-71
2022/08/14 02:55:46;;;;;;;14.70;8.50;;;;;;;15.41;100.00;100947.50;5202605;28;20104;-71
2022/08/14 02:58:19;;;;;;;18.92;7.65;;;;;;;15.40;100.00;100944.97;5202845;28;20025;-71
2022/08/14 03:00:50;;;;;;;14.05;8.82;;;;;;;15.37;100.00;100937.28;5203191;28;20032;-71
2022/08/14 03:03:22;;;;;;;12.80;7.03;;;;;;;15.37;100.00;100948.94;5195064;28;20123;-71
2022/08/14 03:05:53;;;;;;;19.90;7.82;;;;;;;15.37;100.00;100950.78;5200753;28;20037;-71
2022/08/14 03:08:30;;;;;;;11.23;6.90;;;;;;;15.36;100.00;100949.97;5202507;28;20040;-71
2022/08/14 03:11:05;;;;;;;8.55;6.95;;;;;;;15.38;100.00;100947.06;5203112;28;20049;-70
2022/08/14 03:13:40;;;;;;;8.07;7.10;;;;;;;15.39;100.00;100946.00;5203016;28;20108;-71
2022/08/14 03:16:14;;;;;;;10.52;7.78;;;;;;;15.37;100.00;100946.22;5196424;28;20031;-71
2022/08/14 03:18:47;;;;;;;14.35;7.80;;;;;;;15.32;100.00;100945.97;5202534;28;20088;-71
2022/08/14 03:21:19;;;;;;;12.73;7.22;;;;;;;15.27;100.00;100943.00;5202498;28;20017;-71
2022/08/14 03:23:59;;;;;;;11.23;6.65;;;;;;;15.25;100.00;100942.34;5202790;28;20021;-71
2022/08/14 03:26:30;;;;;;;11.10;6.93;;;;;;;15.26;100.00;100935.91;5202165;28;20033;-71
2022/08/14 03:29:01;;;;;;;8.77;7.32;;;;;;;15.28;100.00;100937.41;5202133;28;20024;-72
2022/08/14 03:31:32;;;;;;;9.52;7.65;;;;;;;15.29;100.00;100930.13;5186971;28;20022;-71
2022/08/14 03:34:03;;;;;;;10.15;7.47;;;;;;;15.29;100.00;100933.66;5192009;28;20537;-71
2022/08/14 03:36:34;;;;;;;11.98;7.63;;;;;;;15.22;100.00;100935.50;5202317;28;20037;-72
2022/08/14 03:39:07;;;;;;;12.68;7.63;;;;;;;15.19;100.00;100932.34;5202507;28;20680;-72
2022/08/14 03:41:39;;;;;;;11.43;7.07;;;;;;;15.19;100.00;100932.34;5196971;28;20048;-72
2022/08/14 03:44:09;;;;;;;15.30;8.25;;;;;;;15.21;100.00;100927.56;5181634;28;20043;-71
2022/08/14 03:46:41;;;;;;;12.32;7.78;;;;;;;15.17;100.00;100932.53;5201394;28;20036;-71
2022/08/14 03:49:12;;;;;;;12.07;8.15;;;;;;;15.16;100.00;100930.88;5200737;28;20017;-71
2022/08/14 03:51:44;;;;;;;12.60;8.00;;;;;;;15.15;100.00;100931.88;5202216;28;20505;-71
2022/08/14 03:54:14;;;;;;;10.63;8.43;;;;;;;15.09;100.00;100924.56;5201290;28;20034;-71
2022/08/14 03:56:45;;;;;;;11.73;7.72;;;;;;;15.07;100.00;100914.97;5191804;28;20030;-71
2022/08/14 03:59:15;;;;;;;14.38;8.70;;;;;;;15.08;100.00;100908.53;5199499;28;20035;-71
2022/08/14 04:01:48;;;;;;;11.38;8.00;;;;;;;15.10;100.00;100901.91;5202532;28;20025;-71
2022/08/14 04:04:18;;;;;;;11.77;8.50;;;;;;;15.15;100.00;100896.75;5191192;28;20021;-71
2022/08/14 04:06:50;;;;;;;12.13;8.10;;;;;;;15.17;100.00;100902.81;5201766;28;20391;-72
2022/08/14 04:09:20;;;;;;;14.20;8.88;;;;;;;15.16;100.00;100898.44;5201950;28;20025;-73
2022/08/14 04:11:51;;;;;;;14.48;9.13;;;;;;;15.14;100.00;100895.09;5202248;28;20030;-71
2022/08/14 04:14:22;;;;;;;12.45;8.88;;;;;;;15.09;100.00;100894.81;5201124;28;20045;-70
2022/08/14 04:16:53;;;;;;;13.98;8.40;;;;;;;15.00;100.00;100890.59;5201927;28;20090;-70
2022/08/14 04:19:24;;;;;;;20.13;9.10;;;;;;;14.90;100.00;100890.91;5202001;28;20025;-70
2022/08/14 04:21:54;;;;;;;22.45;10.50;;;;;;;14.84;100.00;100893.56;5201582;28;20509;-70
2022/08/14 04:24:25;;;;;;;22.55;10.27;;;;;;;14.73;100.00;100890.34;5201408;28;20106;-70
2022/08/14 04:26:55;;;;;;;17.33;8.18;;;;;;;14.65;100.00;100876.94;5188312;28;20021;-70
2022/08/14 04:29:26;;;;;;;22.45;8.98;;;;;;;14.62;100.00;100881.91;5202102;28;20376;-70
2022/08/14 04:31:56;;;;;;;25.83;7.90;;;;;;;14.58;100.00;100876.06;5201828;28;20022;-69
2022/08/14 04:34:27;;;;;;;16.85;8.15;;;;;;;14.61;100.00;100873.00;5201179;28;20080;-70
2022/08/14 04:45:37;;;;;;;15.50;8.23;;;;;;;14.79;100.00;100869.81;5190060;28;20021;-70
2022/08/14 04:48:14;;;;;;;18.73;9.30;;;;;;;14.83;100.00;100876.53;5205830;28;20022;-70
2022/08/14 04:50:47;;;;;;;19.65;9.30;;;;;;;14.84;100.00;100888.16;5201536;28;20486;-70
2022/08/14 04:53:21;;;;;;;15.45;8.68;;;;;;;14.80;100.00;100876.06;5201223;28;20151;-70
2022/08/14 04:55:52;;;;;;;14.63;9.20;;;;;;;14.81;100.00;100880.44;5200866;28;20021;-70
2022/08/14 04:58:28;;;;;;;14.32;8.20;;;;;;;14.84;100.00;100885.44;5201378;28;20026;-69
2022/08/14 05:01:00;;;;;;;12.98;8.02;;;;;;;14.88;100.00;100884.03;5201635;28;20030;-69
2022/08/14 05:03:32;;;;;;;14.68;8.85;;;;;;;14.90;100.00;100885.50;5193736;28;20029;-70
2022/08/14 05:06:06;;;;;;;14.02;8.80;;;;;;;14.87;100.00;100883.22;5191791;28;20131;-70
2022/08/14 05:08:37;;;;;;;16.02;9.43;;;;;;;14.83;100.00;100887.31;5205042;28;20049;-69
2022/08/14 05:11:09;;;;;;;13.43;9.80;;;;;;;14.82;100.00;100901.03;5204938;28;20475;-69
2022/08/14 05:13:40;;;;;;;13.88;9.20;;;;;;;14.82;100.00;100884.81;5205188;28;20096;-70
2022/08/14 05:16:12;;;;;;;13.48;9.13;;;;;;;14.86;100.00;100888.78;5204533;28;20486;-70
2022/08/14 05:18:45;;;;;;;13.32;8.52;;;;;;;14.92;100.00;100893.44;5205048;28;20124;-70
2022/08/14 05:21:16;;;;;;;14.18;7.43;;;;;;;15.03;100.00;100893.75;5205649;28;20023;-69
2022/08/14 05:23:46;;;;;;;12.93;8.60;;;;;;;15.13;100.00;100893.41;5204606;28;20033;-70
2022/08/14 05:26:17;;;;;;;17.05;8.93;;;;;;;15.22;100.00;100892.25;5204329;28;20072;-70
2022/08/14 05:28:48;;;;;;;15.15;10.05;;;;;;;15.29;100.00;100892.28;5204716;28;20078;-70
2022/08/14 05:31:18;;;;;;;12.57;8.65;;;;;;;15.37;100.00;100892.16;5204647;28;20436;-70
2022/08/14 05:33:49;;;;;;;11.38;8.25;;;;;;;15.48;100.00;100888.06;5204875;28;20030;-70
2022/08/14 05:36:19;;;;;;;14.77;9.15;;;;;;;15.58;100.00;100885.03;5203867;28;20029;-70
2022/08/14 05:38:51;;;;;;;19.75;9.85;;;;;;;15.68;100.00;100880.97;5204963;28;20021;-70
2022/08/14 05:41:22;;;;;;;11.55;8.48;;;;;;;15.78;100.00;100886.84;5204728;28;20078;-70
2022/08/14 05:43:52;;;;;;;13.35;9.38;;;;;;;15.90;100.00;100880.84;5204848;28;20025;-70
2022/08/14 05:46:23;;;;;;;13.73;9.60;;;;;;;16.04;100.00;100883.44;5198451;28;20026;-70
2022/08/14 05:48:56;;;;;;;13.07;8.52;;;;;;;16.23;100.00;100873.72;5200781;28;20437;-70
2022/08/14 05:51:27;;;;;;;14.23;9.73;;;;;;;16.39;100.00;100859.00;5191876;28;20118;-70
2022/08/14 05:53:58;;;;;;;13.07;9.88;;;;;;;16.57;100.00;100872.81;5201857;28;20017;-70
2022/08/14 05:56:28;;;;;;;19.83;9.85;;;;;;;16.79;100.00;100872.66;5195544;28;20029;-70
2022/08/14 05:58:59;;;;;;;13.48;9.77;;;;;;;17.26;100.00;100874.31;5199120;28;20032;-70
2022/08/14 06:01:29;;;;;;;10.32;8.10;;;;;;;18.20;100.00;100867.66;5205120;28;20024;-70
2022/08/14 06:04:00;;;;;;;13.27;8.73;;;;;;;19.21;100.00;100874.97;5194164;28;20407;-70
2022/08/14 06:06:31;;;;;;;17.55;8.25;;;;;;;20.28;100.00;100874.69;5203934;28;20029;-70
2022/08/14 06:09:02;;;;;;;12.43;7.10;;;;;;;21.31;100.00;100874.44;5200318;28;20030;-70
2022/08/14 06:11:32;;;;;;;10.20;7.07;;;;;;;22.14;100.00;100869.72;5194810;28;20574;-70
2022/08/14 06:14:03;;;;;;;12.65;5.93;;;;;;;22.75;100.00;100865.44;5203096;28;20113;-71
2022/08/14 06:16:33;;;;;;;10.55;6.03;;;;;;;23.27;100.00;100870.72;5203289;28;20025;-70
2022/08/14 06:19:04;;;;;;;10.50;5.70;;;;;;;23.66;100.00;100868.88;5203710;28;20111;-71
2022/08/14 06:21:35;;;;;;;8.93;5.95;;;;;;;24.02;100.00;100874.81;5203042;28;20471;-71
2022/08/14 06:24:06;;;;;;;10.65;5.60;;;;;;;24.54;100.00;100875.16;5183144;28;20029;-71
2022/08/14 06:26:36;;;;;;;7.65;5.22;;;;;;;25.03;96.84;100868.78;5198657;28;20033;-71
2022/08/14 06:29:09;;;;;;;10.10;5.53;;;;;;;25.51;90.99;100872.47;5203788;28;20479;-70
2022/08/14 06:31:39;;;;;;;5.72;5.15;;;;;;;25.92;87.86;100872.72;5203943;28;20032;-70
2022/08/14 06:34:10;;;;;;;7.13;5.13;;;;;;;25.92;83.72;100869.97;5203117;28;20426;-71
2022/08/14 06:36:40;;;;;;;7.68;5.03;;;;;;;26.02;81.72;100876.34;5203394;28;20033;-71
2022/08/14 06:39:11;;;;;;;8.38;4.80;;;;;;;26.34;83.19;100870.66;5203525;28;20108;-70
2022/08/14 06:41:41;;;;;;;10.38;4.78;;;;;;;26.39;80.85;100869.84;5203499;28;20095;-70
2022/08/14 06:44:12;;;;;;;6.78;5.00;;;;;;;26.69;79.47;100868.31;5202754;28;20025;-70
2022/08/14 06:46:42;;;;;;;8.77;4.85;;;;;;;27.07;74.87;100864.22;5203543;28;20022;-70
2022/08/14 06:49:13;;;;;;;10.07;5.28;;;;;;;27.33;74.88;100873.31;5202565;28;20021;-70
2022/08/14 06:51:45;;;;;;;7.65;3.83;;;;;;;27.43;73.54;100861.44;5203774;28;20113;-70
2022/08/14 06:54:16;;;;;;;10.57;4.93;;;;;;;27.44;68.77;100869.41;5198637;28;20060;-70
2022/08/14 06:56:46;;;;;;;6.63;4.32;;;;;;;27.66;68.52;100871.03;5205110;28;20025;-70
2022/08/14 06:59:17;;;;;;;5.63;4.13;;;;;;;27.59;67.61;100874.06;5203488;28;20391;-71
2022/08/14 07:07:34;;;;;;;7.25;3.80;;;;;;;28.13;64.56;100865.94;5202848;28;20053;-70
2022/08/14 07:10:06;;;;;;;6.63;4.00;;;;;;;28.63;61.79;100852.97;5202438;28;20138;-71
2022/08/14 07:12:37;;;;;;;6.93;3.80;;;;;;;29.10;59.47;100851.53;5201968;28;20029;-71
2022/08/14 07:15:08;;;;;;;7.10;4.30;;;;;;;29.06;63.72;100844.91;5202150;28;20082;-70
2022/08/14 07:17:56;;;;;;;6.72;4.22;;;;;;;29.37;57.70;100851.00;5203264;28;20300;-71
2022/08/14 07:20:27;;;;;;;5.82;3.72;;;;;;;29.37;57.74;100850.19;5202342;28;20452;-71
2022/08/14 07:23:00;;;;;;;7.88;4.35;;;;;;;29.51;57.40;100847.53;5202169;28;20104;-71
2022/08/14 07:25:30;;;;;;;7.35;4.10;;;;;;;29.67;59.10;100849.88;5202018;28;20017;-71
2022/08/14 07:28:09;;;;;;;6.45;4.20;;;;;;;30.21;57.32;100852.56;5202800;28;20031;-71
2022/08/14 07:30:39;;;;;;;5.68;4.20;;;;;;;30.50;54.61;100841.34;5202410;28;20033;-72
2022/08/14 07:33:12;;;;;;;6.05;3.78;;;;;;;30.65;55.31;100830.84;5202775;28;20356;-71
2022/08/14 07:35:42;;;;;;;4.45;3.50;;;;;;;30.69;52.80;100826.38;5202315;28;20033;-71
2022/08/14 07:38:28;;;;;;;6.50;4.55;;;;;;;30.67;52.82;100823.09;5202210;28;20275;-71
2022/08/14 07:40:59;;;;;;;10.85;4.38;;;;;;;30.69;54.58;100820.00;5202307;28;20028;-71
2022/08/14 07:43:29;;;;;;;5.68;4.22;;;;;;;30.95;55.25;100814.88;5202187;28;20025;-71
2022/08/14 07:46:00;;;;;;;5.22;3.78;;;;;;;31.07;50.85;100811.63;5201990;28;20037;-72
2022/08/14 07:48:31;;;;;;;7.25;3.95;;;;;;;31.14;51.11;100812.88;5201991;28;20025;-71
2022/08/14 07:51:01;;;;;;;3.85;3.47;;;;;;;31.08;50.14;100822.44;5202429;28;20025;-71
2022/08/14 07:53:32;;;;;;;6.28;3.90;;;;;;;31.00;50.02;100820.34;5202012;28;20029;-72
2022/08/14 07:56:03;;;;;;;4.07;3.63;;;;;;;31.30;50.61;100819.00;5188175;28;20029;-72
2022/08/14 07:58:34;;;;;;;5.55;3.63;;;;;;;31.66;50.14;100816.34;5201900;28;20029;-72
2022/08/14 08:01:05;;;;;;;9.23;3.70;;;;;;;31.81;48.92;100819.94;5200978;28;20029;-72
2022/08/14 08:03:37;;;;;;;7.70;3.40;;;;;;;31.71;48.96;100816.25;5202105;28;20505;-72
2022/08/14 08:06:08;;;;;;;9.10;3.92;;;;;;;31.50;47.12;100817.78;5188217;28;20025;-72
2022/08/14 08:08:40;;;;;;;8.27;3.85;;;;;;;31.54;48.37;100818.00;5201951;28;20479;-71
2022/08/14 08:11:11;;;;;;;4.32;3.47;;;;;;;31.56;47.03;100812.97;5202134;28;20458;-72
2022/08/14 08:13:42;;;;;;;8.45;3.58;;;;;;;31.76;50.36;100811.72;5202064;28;20021;-72
2022/08/14 08:16:13;;;;;;;11.82;3.70;;;;;;;32.02;46.44;100814.78;5201781;28;20056;-71
2022/08/14 08:18:43;;;;;;;8.43;3.92;;;;;;;32.22;46.71;100814.34;5198290;28;20025;-71
2022/08/14 08:21:14;;;;;;;6.00;3.85;;;;;;;32.27;46.16;100817.00;5192477;28;20543;-72
2022/08/14 08:23:45;;;;;;;5.13;3.38;;;;;;;32.47;46.86;100812.97;5202248;28;20035;-72
2022/08/14 08:26:15;;;;;;;8.35;3.95;;;;;;;32.55;44.78;100809.44;5201481;28;20029;-72
2022/08/14 08:28:57;;;;;;;4.40;4.00;;;;;;;32.66;44.55;100799.72;5201658;28;20041;-72
2022/08/14 08:31:28;;;;;;;3.88;3.38;;;;;;;32.53;44.19;100803.38;5201429;28;20030;-72
2022/08/14 08:34:03;;;;;;;5.55;3.33;;;;;;;32.65;43.06;100792.53;5202160;28;20030;-72
2022/08/14 08:36:52;;;;;;;4.40;3.20;;;;;;;32.34;46.35;100797.16;5201236;28;20522;-72
2022/08/14 08:39:23;;;;;;;8.88;3.35;;;;;;;31.76;46.00;100795.91;5204976;28;20472;-72
2022/08/14 08:41:54;;;;;;;3.75;3.10;;;;;;;31.58;46.18;100797.66;5205910;28;20029;-72
2022/08/14 08:44:40;;;;;;;5.47;3.60;;;;;;;31.39;48.63;100794.16;5205693;28;20052;-72
2022/08/14 08:47:11;;;;;;;6.63;4.45;;;;;;;31.29;47.12;100794.38;5205368;28;20309;-72
2022/08/14 08:49:42;;;;;;;4.15;3.35;;;;;;;31.23;46.52;100790.84;5203826;28;20030;-72
2022/08/14 08:52:12;;;;;;;6.78;3.60;;;;;;;31.36;47.58;100792.00;5204130;28;20116;-72
2022/08/14 08:54:52;;;;;;;7.45;3.50;;;;;;;31.84;47.28;100791.63;5205160;28;20368;-72
2022/08/14 08:57:23;;;;;;;8.10;3.47;;;;;;;31.98;47.29;100786.88;5192557;28;20026;-72
2022/08/14 08:59:56;;;;;;;4.65;3.50;;;;;;;31.90;46.20;100788.41;5205938;28;20025;-72
2022/08/14 09:02:27;;;;;;;8.48;3.72;;;;;;;31.71;48.08;100784.91;5204388;28;20065;-72
2022/08/14 09:05:16;;;;;;;4.78;3.67;;;;;;;31.50;47.59;100790.06;5195968;28;20029;-72
2022/08/14 09:07:47;;;;;;;7.95;3.90;;;;;;;31.37;47.63;100788.09;5192834;28;20439;-72
2022/08/14 09:10:18;;;;;;;6.70;3.90;;;;;;;31.31;48.98;100779.06;5205351;28;20060;-72
2022/08/14 09:12:49;;;;;;;4.28;3.88;;;;;;;31.36;49.41;100781.72;5205394;28;20482;-71
2022/08/14 09:15:20;;;;;;;4.47;3.53;;;;;;;31.68;51.53;100780.00;5204449;28;20036;-72
2022/08/14 09:17:51;;;;;;;4.53;3.63;;;;;;;32.11;47.66;100772.13;5205348;28;20029;-72
2022/08/14 09:20:23;;;;;;;5.60;3.45;;;;;;;32.20;46.73;100775.81;5205391;28;20033;-72
2022/08/14 09:22:53;;;;;;;5.35;3.85;;;;;;;32.37;46.17;100769.59;5205504;28;20067;-71
2022/08/14 09:25:24;;;;;;;7.60;3.60;;;;;;;32.16;44.99;100768.41;5204238;28;20418;-72
2022/08/14 09:27:55;;;;;;;5.18;3.55;;;;;;;31.87;46.24;100772.38;5205347;28;20104;-72
2022/08/14 09:30:26;;;;;;;5.88;3.17;;;;;;;31.59;48.60;100765.22;5204709;28;20017;-72
2022/08/14 09:33:33;;;;;;;6.07;3.70;;;;;;;31.18;50.38;100757.69;5205086;28;20063;-73
2022/08/14 09:36:13;;;;;;;10.00;4.10;;;;;;;30.95;49.67;100756.72;5204418;28;20479;-72
2022/08/14 09:38:52;;;;;;;6.30;3.40;;;;;;;30.78;49.28;100750.97;5205138;28;20527;-71
2022/08/14 09:41:51;;;;;;;5.32;3.53;;;;;;;30.63;50.24;100750.06;5204754;28;20041;-72
2022/08/14 09:44:44;;;;;;;4.93;3.58;;;;;;;30.49;51.30;100749.19;5203738;28;20072;-72
2022/08/14 09:47:15;;;;;;;10.10;3.90;;;;;;;30.45;52.48;100734.31;5204351;28;20482;-72
2022/08/14 09:49:46;;;;;;;15.13;4.30;;;;;;;30.62;51.31;100742.03;5204099;28;20029;-72
2022/08/14 09:52:17;;;;;;;6.55;3.50;;;;;;;30.98;50.58;100738.66;5204188;28;20029;-72
2022/08/14 09:54:47;;;;;;;4.32;3.75;;;;;;;31.58;50.80;100742.22;5203638;28;20037;-72
2022/08/14 09:57:36;;;;;;;7.10;3.50;;;;;;;32.21;48.98;100737.78;5202421;28;20319;-72
2022/08/14 10:00:13;;;;;;;7.28;2.90;;;;;;;32.77;45.21;100735.56;5194289;28;20030;-72
2022/08/14 10:03:02;;;;;;;3.67;2.90;;;;;;;33.04;43.09;100729.88;5201059;28;20475;-72
2022/08/14 10:05:35;;;;;;;6.00;2.95;;;;;;;33.25;43.48;100728.16;5199061;28;20059;-72
2022/08/14 10:08:18;;;;;;;7.68;3.50;;;;;;;33.72;43.64;100720.13;5204004;28;20491;-72
2022/08/14 10:10:49;;;;;;;6.03;3.20;;;;;;;33.65;46.73;100710.63;5204257;28;20026;-72
2022/08/14 10:13:23;;;;;;;9.95;3.22;;;;;;;33.91;43.91;100714.25;5202036;28;20028;-72
2022/08/14 10:15:58;;;;;;;4.25;3.03;;;;;;;33.92;41.77;100717.84;5196087;28;20056;-73
2022/08/14 10:18:30;;;;;;;5.28;2.78;;;;;;;33.91;41.32;100717.03;5203649;28;20483;-73
2022/08/14 10:21:01;;;;;;;7.10;2.90;;;;;;;33.97;41.67;100720.50;5203902;28;20084;-72
2022/08/14 10:23:51;;;;;;;7.45;2.97;;;;;;;33.86;38.72;100721.94;5203462;28;20058;-72
2022/08/14 10:26:23;;;;;;;4.55;1.70;;;;;;;33.94;37.87;100723.97;5201937;28;20068;-72
2022/08/14 10:29:18;;;;;;;3.22;1.58;;;;;;;33.84;33.52;100710.31;5191460;28;20052;-72
2022/08/14 10:31:55;;;;;;;;;;;;;;;33.59;33.21;100706.34;5203501;28;20033;-73
2022/08/14 10:34:42;;;;;;;1.75;1.40;;;;;;;33.68;32.99;100713.56;5202903;28;20733;-73
2022/08/14 10:37:15;;;;;;;1.90;1.67;;;;;;;33.56;33.48;100713.38;5192985;28;20033;-72
2022/08/14 10:40:00;;;;;;;2.00;1.60;;;;;;;33.42;31.22;100704.34;5203231;28;20029;-73
2022/08/14 10:42:49;;;;;;;2.72;1.40;;;;;;;33.16;31.87;100698.69;5202763;28;20029;-72
2022/08/14 10:45:22;;;;;;;3.17;1.65;;;;;;;33.17;31.50;100690.03;5191722;28;20026;-72
2022/08/14 10:47:52;;;;;;;4.35;1.70;;;;;;;32.91;31.23;100689.09;5202143;28;20029;-73
2022/08/14 10:53:34;;;;;;;4.22;2.05;;;;;;;32.86;32.41;100661.44;5201784;28;20033;-72
2022/08/14 10:56:09;;;;;;;5.68;1.80;;;;;;;33.12;33.01;100662.38;5202505;28;20029;-73
2022/08/14 10:58:39;;;;;;;2.47;1.90;;;;;;;33.39;32.42;100668.84;5203188;28;20029;-73
2022/08/14 11:01:11;;;;;;;3.13;1.60;;;;;;;33.48;32.80;100678.03;5197427;28;20021;-73
2022/08/14 11:03:42;;;;;;;4.80;1.75;;;;;;;33.72;32.01;100664.47;5193223;28;20021;-73
2022/08/14 11:06:19;;;;;;;3.85;1.50;;;;;;;33.79;32.26;100657.59;5202632;28;20087;-73
2022/08/14 11:08:50;;;;;;;3.47;1.98;;;;;;;33.47;32.37;100659.72;5203180;28;20048;-72
2022/08/14 11:11:25;;;;;;;4.63;2.03;;;;;;;32.78;33.08;100651.09;5203394;28;20022;-73
2022/08/14 11:13:56;;;;;;;2.25;1.90;;;;;;;32.47;32.86;100644.41;5202949;28;20022;-72
2022/08/14 11:16:28;;;;;;;2.70;1.88;;;;;;;32.05;33.26;100640.22;5201888;28;20037;-73
2022/08/14 11:19:02;;;;;;;4.15;2.25;;;;;;;31.73;33.63;100641.25;5202646;28;20048;-72
2022/08/14 11:21:39;;;;;;;2.63;2.08;;;;;;;31.50;34.65;100645.91;5202568;28;20057;-73
2022/08/14 11:24:12;;;;;;;5.53;1.90;;;;;;;31.55;34.54;100639.44;5201857;28;20483;-72
2022/08/14 11:26:44;;;;;;;5.00;1.95;;;;;;;31.59;35.41;100640.44;5202687;28;20107;-73
2022/08/14 11:29:15;;;;;;;3.40;1.90;;;;;;;31.81;34.37;100634.97;5202403;28;20078;-72
2022/08/14 11:31:46;;;;;;;4.95;1.75;;;;;;;32.20;33.87;100634.28;5202408;28;20040;-72
2022/08/14 11:34:17;;;;;;;3.05;1.58;;;;;;;32.57;32.87;100621.13;5201980;28;20030;-72
2022/08/14 11:36:47;;;;;;;2.90;2.00;;;;;;;33.13;32.27;100622.31;5202291;28;20044;-73
2022/08/14 11:39:21;;;;;;;3.25;1.70;;;;;;;33.20;32.06;100619.09;5201955;28;20068;-72
2022/08/14 11:41:51;;;;;;;1.70;1.60;;;;;;;33.54;31.40;100609.16;5202433;28;20034;-73
2022/08/14 11:44:22;;;;;;;4.40;2.17;;;;;;;33.82;31.91;100624.41;5198964;28;20022;-72
2022/08/14 11:46:52;;;;;;;2.88;2.00;;;;;;;34.12;31.45;100608.69;5191668;28;20491;-73
2022/08/14 11:49:26;;;;;;;3.75;1.70;;;;;;;34.32;30.67;100604.38;5205014;28;20036;-73
2022/08/14 11:51:56;;;;;;;2.33;1.88;;;;;;;34.06;29.95;100601.66;5202053;28;20364;-73
2022/08/14 11:54:27;;;;;;;9.10;1.98;;;;;;;33.99;31.03;100596.59;5201202;28;20067;-73
2022/08/14 11:56:57;;;;;;;2.15;1.95;;;;;;;34.11;30.26;100598.69;5189741;28;20065;-72
2022/08/14 11:59:31;;;;;;;3.78;1.67;;;;;;;34.07;29.63;100592.16;5200450;28;20597;-72
2022/08/14 12:02:19;;;;;;;3.53;1.90;;;;;;;34.10;30.35;100585.13;5202025;28;20338;-72
2022/08/14 12:04:51;;;;;;;2.90;2.03;;;;;;;34.09;29.33;100589.88;5191156;28;20192;-72